J.e. O'donnell — WDC2694 — position and weather

sailwx.info

Track history (hours):
 
Tides and Currents Weather Stations Pressure Air Temp Water Temp Dewpoint Dewpoint Depression Visibility Wind Speed Wind Dir Waves Ship Positions

J.e. O'donnell

Owner: Kirby Inland Marine LP, Houston, TX. More information available from US FCC via Universal Licensing System and Coast Guard Vessel Documentation Center.

Last reported at 2017-Oct-12 23:45 UTC. Time now 2017-Oct-18 23:56 UTC.
Position N 29°33' W 094°55'.

Length 22 m; draft 3 m.

Type: . MMSI: 366996490.

Date/timePositionNaut miles runAvg speedWind from/ knotsBaromVisibWave heightAir tempDewpointWater temp
2017-Oct-12 23:45N 29°33' W 094°55'1 5.2
2017-Oct-12 23:30N 29°34' W 094°55'2 5.1
2017-Oct-12 23:00N 29°36' W 094°57'3 5.2
2017-Oct-12 22:30N 29°39' W 094°58'3 5.8
2017-Oct-12 22:00N 29°41' W 094°59'8 2.3
2017-Oct-12 18:35N 29°44' W 095°08'0 3.9
2017-Oct-12 18:30N 29°44' W 095°08'3 0.3
2017-Oct-12 07:38N 29°45' W 095°12'0 0.0
2017-Oct-12 07:23N 29°45' W 095°12'0 0.0
2017-Oct-12 06:59N 29°45' W 095°12'0 0.0
2017-Oct-12 05:47N 29°45' W 095°12'0 0.0
2017-Oct-12 05:14N 29°45' W 095°12'0 0.0
2017-Oct-12 04:59N 29°45' W 095°12'0 0.0
2017-Oct-12 04:23N 29°45' W 095°12'0 0.0
2017-Oct-12 03:56N 29°45' W 095°12'0 0.0
2017-Oct-12 03:17N 29°45' W 095°12'0 0.0
2017-Oct-12 02:50N 29°45' W 095°12'0 0.0
2017-Oct-12 02:26N 29°45' W 095°12'0 0.0
2017-Oct-11 23:57N 29°45' W 095°12'2 2.6
2017-Oct-11 23:21N 29°45' W 095°10'2 6.0
2017-Oct-11 23:00N 29°44' W 095°08'2 4.8
2017-Oct-11 22:30N 29°45' W 095°06'  
2017-Oct-09 06:28N 29°45' W 095°06'0 0.0
2017-Oct-09 05:46N 29°45' W 095°06'0 0.0
2017-Oct-09 05:22N 29°45' W 095°06'0 0.0
2017-Oct-09 00:18N 29°45' W 095°06'2 3.8
2017-Oct-08 23:51N 29°47' W 095°05'0 0.0
2017-Oct-08 13:49N 29°47' W 095°04'0 0.0
2017-Oct-08 13:19N 29°47' W 095°04'0 0.0
2017-Oct-08 10:04N 29°47' W 095°04'0 0.8
2017-Oct-08 09:53N 29°47' W 095°05'0 0.0
2017-Oct-08 09:29N 29°47' W 095°05'0 0.0
2017-Oct-08 08:59N 29°47' W 095°05'0 0.0
2017-Oct-08 08:20N 29°47' W 095°05'0 0.0
2017-Oct-08 07:17N 29°47' W 095°05'0 0.0
2017-Oct-08 06:43N 29°47' W 095°05'0 0.0
2017-Oct-08 06:28N 29°47' W 095°05'0 0.0
2017-Oct-08 04:37N 29°47' W 095°05'0 0.0
2017-Oct-08 04:16N 29°47' W 095°05'0 0.0
2017-Oct-08 03:37N 29°47' W 095°05'0 0.0
2017-Oct-08 03:16N 29°47' W 095°05'0 0.0
2017-Oct-08 02:52N 29°47' W 095°05'0 0.0
2017-Oct-08 02:16N 29°47' W 095°05'0 0.0
2017-Oct-08 01:52N 29°47' W 095°05'0 0.0
2017-Oct-08 01:25N 29°47' W 095°05'0 0.0
2017-Oct-08 00:52N 29°47' W 095°05'0 0.0
2017-Oct-07 10:35N 29°47' W 095°04'0 4.0
2017-Oct-07 10:30N 29°47' W 095°04'0 0.3
2017-Oct-07 09:43N 29°47' W 095°05'0 0.0
2017-Oct-07 09:16N 29°47' W 095°05'1 0.1
2017-Oct-06 18:22N 29°45' W 095°04'2 4.3
2017-Oct-06 17:59N 29°44' W 095°03'2 4.0
2017-Oct-06 17:28N 29°43' W 095°01'2 4.5
2017-Oct-06 17:00N 29°42' W 094°59'2 4.7
2017-Oct-06 16:31N 29°39' W 094°58'3 5.4
2017-Oct-06 16:00N 29°37' W 094°57'3 5.3
2017-Oct-06 15:30N 29°35' W 094°56'3 5.6
2017-Oct-06 15:00N 29°32' W 094°54'78 3.8
2017-Oct-05 18:35N 30°04' W 093°31'1 4.8
2017-Oct-05 18:28N 30°04' W 093°31'2 4.7
2017-Oct-05 17:59N 30°04' W 093°28'2 4.7
2017-Oct-05 17:30N 30°04' W 093°25'2 4.6
2017-Oct-05 16:59N 30°04' W 093°23'5 3.4
2017-Oct-05 15:30N 30°08' W 093°20'2 4.2
2017-Oct-05 14:58N 30°10' W 093°19'0 0.3
2017-Oct-05 14:16N 30°10' W 093°19'0 0.0
2017-Oct-05 13:58N 30°10' W 093°19'0 0.0
2017-Oct-05 13:28N 30°10' W 093°19'0 0.0
2017-Oct-05 12:58N 30°10' W 093°19'0 0.0
2017-Oct-04 05:34N 30°10' W 093°19'0 0.0
2017-Oct-04 05:10N 30°10' W 093°19'0 0.0
2017-Oct-04 04:52N 30°10' W 093°19'0 0.0
2017-Oct-04 04:28N 30°10' W 093°19'0 0.0
2017-Oct-04 03:58N 30°10' W 093°19'0 0.0
2017-Oct-04 03:28N 30°10' W 093°19'0 0.0
2017-Oct-04 02:58N 30°10' W 093°19'0 0.0
2017-Oct-04 02:28N 30°10' W 093°19'0 0.0
2017-Oct-04 01:58N 30°10' W 093°19'0 0.0
2017-Oct-04 01:28N 30°10' W 093°19'0 0.0
2017-Oct-04 00:58N 30°10' W 093°19'0 0.0
2017-Oct-04 00:27N 30°10' W 093°19'0 0.0
2017-Oct-03 16:57N 30°10' W 093°19'0 0.6
2017-Oct-03 16:26N 30°11' W 093°19'0 0.6
2017-Oct-03 15:47N 30°10' W 093°19'1 4.7
2017-Oct-03 15:29N 30°09' W 093°20'3 5.5
2017-Oct-03 14:59N 30°06' W 093°20'3 3.4
2017-Oct-03 13:58N 30°04' W 093°22'1 1.1
2017-Oct-03 13:18N 30°04' W 093°21'1 0.1
2017-Oct-03 05:42N 30°04' W 093°22'0 0.0
2017-Oct-03 05:12N 30°04' W 093°22'0 0.0
2017-Oct-03 04:48N 30°04' W 093°22'0 0.0
2017-Oct-03 04:30N 30°04' W 093°22'0 0.0
2017-Oct-03 04:00N 30°04' W 093°22'0 0.0
2017-Oct-03 03:30N 30°04' W 093°22'0 0.0
2017-Oct-03 03:00N 30°04' W 093°22'0 0.0
2017-Oct-03 02:30N 30°04' W 093°22'0 0.0
2017-Oct-03 02:00N 30°04' W 093°22'0 0.0
2017-Oct-03 01:30N 30°04' W 093°22'0 0.0
2017-Oct-03 01:00N 30°04' W 093°22'0 0.0
2017-Oct-03 00:30N 30°04' W 093°22'0 0.0
2017-Oct-02 23:59N 30°04' W 093°22'  
Track history (hours):
 
Tides and Currents Weather Stations Pressure Air Temp Water Temp Dewpoint Dewpoint Depression Visibility Wind Speed Wind Dir Waves Ship Positions

J.e. O'donnell

Owner: Kirby Inland Marine LP, Houston, TX. More information available from US FCC via Universal Licensing System and Coast Guard Vessel Documentation Center.

Last reported at 2017-Oct-12 23:45 UTC. Time now 2017-Oct-18 23:56 UTC.
Position N 29°33' W 094°55'.

Length 22 m; draft 3 m.

Type: . MMSI: 366996490.

Date/timePositionNaut miles runAvg speedWind from/ knotsBaromVisibWave heightAir tempDewpointWater temp
2017-Oct-12 23:45N 29°33' W 094°55'1 5.2
2017-Oct-12 23:30N 29°34' W 094°55'2 5.1
2017-Oct-12 23:00N 29°36' W 094°57'3 5.2
2017-Oct-12 22:30N 29°39' W 094°58'3 5.8
2017-Oct-12 22:00N 29°41' W 094°59'8 2.3
2017-Oct-12 18:35N 29°44' W 095°08'0 3.9
2017-Oct-12 18:30N 29°44' W 095°08'3 0.3
2017-Oct-12 07:38N 29°45' W 095°12'0 0.0
2017-Oct-12 07:23N 29°45' W 095°12'0 0.0
2017-Oct-12 06:59N 29°45' W 095°12'0 0.0
2017-Oct-12 05:47N 29°45' W 095°12'0 0.0
2017-Oct-12 05:14N 29°45' W 095°12'0 0.0
2017-Oct-12 04:59N 29°45' W 095°12'0 0.0
2017-Oct-12 04:23N 29°45' W 095°12'0 0.0
2017-Oct-12 03:56N 29°45' W 095°12'0 0.0
2017-Oct-12 03:17N 29°45' W 095°12'0 0.0
2017-Oct-12 02:50N 29°45' W 095°12'0 0.0
2017-Oct-12 02:26N 29°45' W 095°12'0 0.0
2017-Oct-11 23:57N 29°45' W 095°12'2 2.6
2017-Oct-11 23:21N 29°45' W 095°10'2 6.0
2017-Oct-11 23:00N 29°44' W 095°08'2 4.8
2017-Oct-11 22:30N 29°45' W 095°06'  
2017-Oct-09 06:28N 29°45' W 095°06'0 0.0
2017-Oct-09 05:46N 29°45' W 095°06'0 0.0
2017-Oct-09 05:22N 29°45' W 095°06'0 0.0
2017-Oct-09 00:18N 29°45' W 095°06'2 3.8
2017-Oct-08 23:51N 29°47' W 095°05'0 0.0
2017-Oct-08 13:49N 29°47' W 095°04'0 0.0
2017-Oct-08 13:19N 29°47' W 095°04'0 0.0
2017-Oct-08 10:04N 29°47' W 095°04'0 0.8
2017-Oct-08 09:53N 29°47' W 095°05'0 0.0
2017-Oct-08 09:29N 29°47' W 095°05'0 0.0
2017-Oct-08 08:59N 29°47' W 095°05'0 0.0
2017-Oct-08 08:20N 29°47' W 095°05'0 0.0
2017-Oct-08 07:17N 29°47' W 095°05'0 0.0
2017-Oct-08 06:43N 29°47' W 095°05'0 0.0
2017-Oct-08 06:28N 29°47' W 095°05'0 0.0
2017-Oct-08 04:37N 29°47' W 095°05'0 0.0
2017-Oct-08 04:16N 29°47' W 095°05'0 0.0
2017-Oct-08 03:37N 29°47' W 095°05'0 0.0
2017-Oct-08 03:16N 29°47' W 095°05'0 0.0
2017-Oct-08 02:52N 29°47' W 095°05'0 0.0
2017-Oct-08 02:16N 29°47' W 095°05'0 0.0
2017-Oct-08 01:52N 29°47' W 095°05'0 0.0
2017-Oct-08 01:25N 29°47' W 095°05'0 0.0
2017-Oct-08 00:52N 29°47' W 095°05'0 0.0
2017-Oct-07 10:35N 29°47' W 095°04'0 4.0
2017-Oct-07 10:30N 29°47' W 095°04'0 0.3
2017-Oct-07 09:43N 29°47' W 095°05'0 0.0
2017-Oct-07 09:16N 29°47' W 095°05'1 0.1
2017-Oct-06 18:22N 29°45' W 095°04'2 4.3
2017-Oct-06 17:59N 29°44' W 095°03'2 4.0
2017-Oct-06 17:28N 29°43' W 095°01'2 4.5
2017-Oct-06 17:00N 29°42' W 094°59'2 4.7
2017-Oct-06 16:31N 29°39' W 094°58'3 5.4
2017-Oct-06 16:00N 29°37' W 094°57'3 5.3
2017-Oct-06 15:30N 29°35' W 094°56'3 5.6
2017-Oct-06 15:00N 29°32' W 094°54'78 3.8
2017-Oct-05 18:35N 30°04' W 093°31'1 4.8
2017-Oct-05 18:28N 30°04' W 093°31'2 4.7
2017-Oct-05 17:59N 30°04' W 093°28'2 4.7
2017-Oct-05 17:30N 30°04' W 093°25'2 4.6
2017-Oct-05 16:59N 30°04' W 093°23'5 3.4
2017-Oct-05 15:30N 30°08' W 093°20'2 4.2
2017-Oct-05 14:58N 30°10' W 093°19'0 0.3
2017-Oct-05 14:16N 30°10' W 093°19'0 0.0
2017-Oct-05 13:58N 30°10' W 093°19'0 0.0
2017-Oct-05 13:28N 30°10' W 093°19'0 0.0
2017-Oct-05 12:58N 30°10' W 093°19'0 0.0
2017-Oct-04 05:34N 30°10' W 093°19'0 0.0
2017-Oct-04 05:10N 30°10' W 093°19'0 0.0
2017-Oct-04 04:52N 30°10' W 093°19'0 0.0
2017-Oct-04 04:28N 30°10' W 093°19'0 0.0
2017-Oct-04 03:58N 30°10' W 093°19'0 0.0
2017-Oct-04 03:28N 30°10' W 093°19'0 0.0
2017-Oct-04 02:58N 30°10' W 093°19'0 0.0
2017-Oct-04 02:28N 30°10' W 093°19'0 0.0
2017-Oct-04 01:58N 30°10' W 093°19'0 0.0
2017-Oct-04 01:28N 30°10' W 093°19'0 0.0
2017-Oct-04 00:58N 30°10' W 093°19'0 0.0
2017-Oct-04 00:27N 30°10' W 093°19'0 0.0
2017-Oct-03 16:57N 30°10' W 093°19'0 0.6
2017-Oct-03 16:26N 30°11' W 093°19'0 0.6
2017-Oct-03 15:47N 30°10' W 093°19'1 4.7
2017-Oct-03 15:29N 30°09' W 093°20'3 5.5
2017-Oct-03 14:59N 30°06' W 093°20'3 3.4
2017-Oct-03 13:58N 30°04' W 093°22'1 1.1
2017-Oct-03 13:18N 30°04' W 093°21'1 0.1
2017-Oct-03 05:42N 30°04' W 093°22'0 0.0
2017-Oct-03 05:12N 30°04' W 093°22'0 0.0
2017-Oct-03 04:48N 30°04' W 093°22'0 0.0
2017-Oct-03 04:30N 30°04' W 093°22'0 0.0
2017-Oct-03 04:00N 30°04' W 093°22'0 0.0
2017-Oct-03 03:30N 30°04' W 093°22'0 0.0
2017-Oct-03 03:00N 30°04' W 093°22'0 0.0
2017-Oct-03 02:30N 30°04' W 093°22'0 0.0
2017-Oct-03 02:00N 30°04' W 093°22'0 0.0
2017-Oct-03 01:30N 30°04' W 093°22'0 0.0
2017-Oct-03 01:00N 30°04' W 093°22'0 0.0
2017-Oct-03 00:30N 30°04' W 093°22'0 0.0
2017-Oct-02 23:59N 30°04' W 093°22'  

Dump ship's entire track history